Terminal Aerodrome Forecast
Issued by NWS

Home | Current Version | Previous Version | Graphics & Text | Print | Product List | Glossary On
Versions: 1 2 3 4 5 6 7 8 9 10 11 12 13 14 15 16 17 18 19 20 21
013
FTUS43 KLOT 240259 AAA
TAFORD
TAF AMD
KORD 240259Z 2403/2506 04009KT P6SM SCT250
     FM240500 07006KT P6SM FEW250
     FM241500 12011KT P6SM FEW250
     FM242200 09011KT P6SM FEW250
     FM250100 12009KT P6SM FEW250=

USA.gov is the U.S. government's official web portal to all federal, state and local government web resources and services.